Aérodrome :
LOGIN :

S'inscrire | Disclaimer

   EN    FR    IT 

 










Légende :    VFR   VFR Marginal   IFR   IFR Intensif   IFR Très Intensif
Visi : 
Plafond : 
>= 8 km
>= 3000ft
5 à 8 km
1000 à 3000 ft
1500m à 5 km
500 à 1000 ft
800 à 1500m
200 à 500 ft
< 800m
< 200 ft
Symboles :   Orages  Brouillard  Fortes neiges  Fortes précipitations  Vent > 20 kt
SIGMETs :   Divers  Orages  Givrage  Turbulence  Onde Orograph.  Cendres Volcan.







- Altitude de l'aérodrome : 20 ft


EBFN - Koksijde

DERNIER METAR :
  • 251455Z 36006KT 9999 FEW035 21/10 Q1026 BLU BLU

METARs EXPIRÉS :
  • 251425Z 01005KT 9999 FEW035 21/11 Q1026 BLU BLU
  • 251355Z 36008KT 9999 FEW035 21/11 Q1026 BLU BLU
  • 251325Z 36007KT 9999 FEW035 21/11 Q1026 BLU BLU
  • 251255Z 36007KT 9999 FEW032 21/12 Q1026 BLU BLU
  • 251225Z 36006KT 9999 FEW032 20/12 Q1026 BLU BLU

TAF TAF EBFN
Valide du 25 à 13h jusqu'au 25 à 22h UTC


251141Z 2513/2522 01005KT 9999 FEW030
BECMG 2520/2522 05005KT
Pas de NOTAMs connus pour ce terrain.



MET'MAP, la Météo Aéronautique d'un coup d'oeil ! - Copyright ORBIFLY Décembre 2007 - Disclaimer

ORBIFLY MET'MAP TEAM :

Programmation & Développement : Alexandra Zaïnal
Conception & Développement : Baudouin d'Aumeries
Co-Programmation & Développement : Marc-Olivier Méhu
Soutien technique & logistique : Manuel Goepfert

Contact : metmap@orbifly.com




SOURCES & CREDITS :

   NOAA